首页
METAR-TAF:

METAR-TAF

机场 :

Lanseria, 南非共和國

纬度: 25-56S, 经度: 027-56E, 海拔: 1377米

当前天气观测

该预报发布于40分钟前的10:00 UTC
风速4节,风向北转西北,在西东北之间变化
温度 20°C
湿度 18%
气压 1023 hPa
能见度10公里或以上
1500米以下无云,无积雨云

METAR: FALA 201000Z 34004KT 280V050 CAVOK 20/M05 Q1023 NOSIG

时间: 12:40 (10:40 UTC)

预报

该预报发布于6小时和40分钟前的04:00 UTC
预报有效从20日的 06点(UTC)到 21日的 06点(UTC)
风速3节,风向多变
能见度10公里或以上
1500米以下无云,无积雨云
成为
从 20日的 11点(UTC)到 20日的 13点(UTC)
风速10节,风向西转西北
成为
从 20日的 16点(UTC)到 20日的 18点(UTC)
风速3节,风向多变

TAF: FALA 200400Z 2006/2106 VRB03KT CAVOK TX23/2013Z TN04/2103Z BECMG 2011/2013 29010KT BECMG 2016/2018 VRB03KT

超过4000个机场的气象观测和天气预报(METAR&TAF报告)。

可查询的气象台以黄色和红色小点在地图上表示。

将鼠标移到小点上方,可查看气象台名称。

然后点击查看天气观测和预报。

如需切换地图:点击带黑十字的绿色按钮放大地图;点击带横线的绿色按钮缩小地图;或者点击绿色箭头查看邻近地区的地图。


METAR-TAF: